ウルムチ の空港の天気 - METARとTAF

ウルムチ地窩堡国際空港 ( ZWWW / URC ) - 中国 新疆ウイグル自治区ウルムチ市
飛行場実況気象(Metar)
観測時間05/29 23:00 CST (05/29 15:00 UTC)
風向・風速西南西 2m/s
視程10km以上
天気現象
なし
気温23℃
湿度16%
気圧1011hPa
METARZWWW 291500Z 24002MPS 190V250 CAVOK 23/M04 Q1011 NOSIG
過去の天気等 Google飛行場航空写真 Wunderground天気予報

過去48時間のMETAR

飛行場予報(TAF)
発表時間: 5/29 17:01 CST (5/29 09:01 UTC)
予報対象時間: 29日20時 CST ~ 30日20時 CST
風向・風速北北西 4m/s 瞬間風速 9m/s
視程10km以上
少しの積乱雲 雲底高度 1220m
29日21時 CST ~ 29日22時 CST に徐々に
風向・風速南 4m/s
視程10km以上
なし
30日11時 CST ~ 30日12時 CST に徐々に
風向・風速北 4m/s
TAF ZWWW 290901Z 2912/3012 33004G09MPS 9999 FEW040CB TX30/3009Z TN20/2923Z
BECMG 2913/2914 18004MPS CAVOK
BECMG 3003/3004 36004MPS